Time;durP1;ratioP1;P1;durP2;ratioP2;P2;SDS_P1;SDS_P2;PMS_P1;PMS_P2;Temp;Humidity;BMP_temperature;BMP_pressure;BME280_temperature;BME280_humidity;BME280_pressure;Samples;Min_cycle;Max_cycle;Signal;HPM_P1;HPM_P2
2022/08/17 00:00:28;;;;;;;7.90;7.10;;;;;;;;;;5066369;28;20189;-67
2022/08/17 00:03:18;;;;;;;8.53;7.80;;;;;;;;;;5064562;28;20207;-67
2022/08/17 00:05:55;;;;;;;8.23;7.53;;;;;;;;;;5062046;28;20226;-66
2022/08/17 00:08:28;;;;;;;8.70;7.80;;;;;;;;;;5054165;28;20285;-67
2022/08/17 00:10:59;;;;;;;9.00;8.20;;;;;;;;;;5060985;28;20217;-67
2022/08/17 00:13:31;;;;;;;8.63;7.80;;;;;;;;;;5062128;28;20193;-67
2022/08/17 00:16:10;;;;;;;8.77;8.00;;;;;;;;;;5054656;28;20243;-66
2022/08/17 00:19:14;;;;;;;8.37;7.67;;;;;;;;;;5057895;28;20208;-67
2022/08/17 00:21:46;;;;;;;9.20;8.40;;;;;;;;;;5042265;28;20198;-67
2022/08/17 00:24:36;;;;;;;8.57;7.87;;;;;;;;;;5051375;28;20213;-66
2022/08/17 00:27:05;;;;;;;8.27;7.67;;;;;;;;;;5066853;28;20214;-67
2022/08/17 00:29:35;;;;;;;9.47;8.67;;;;;;;;;;5061868;28;20205;-66
2022/08/17 00:32:05;;;;;;;8.70;8.00;;;;;;;;;;5050894;28;20191;-67
2022/08/17 00:34:57;;;;;;;9.00;8.20;;;;;;;;;;5059073;28;20648;-67
2022/08/17 00:37:29;;;;;;;9.60;8.60;;;;;;;;;;5067250;28;20375;-67
2022/08/17 00:40:00;;;;;;;8.83;8.07;;;;;;;;;;5056650;28;20432;-67
2022/08/17 00:42:30;;;;;;;9.13;8.20;;;;;;;;;;5048993;28;20206;-67
2022/08/17 00:45:00;;;;;;;9.07;8.27;;;;;;;;;;5050203;28;20205;-67
2022/08/17 00:47:31;;;;;;;10.40;8.50;;;;;;;;;;5045410;28;20264;-67
2022/08/17 00:50:05;;;;;;;9.50;8.67;;;;;;;;;;5062665;28;20202;-66
2022/08/17 00:52:38;;;;;;;9.13;8.33;;;;;;;;;;5054412;28;20198;-67
2022/08/17 00:55:09;;;;;;;8.87;8.17;;;;;;;;;;5058950;28;20232;-66
2022/08/17 00:57:43;;;;;;;9.53;8.60;;;;;;;;;;5050524;28;20210;-66
2022/08/17 01:00:14;;;;;;;9.83;8.93;;;;;;;;;;5069732;28;20205;-66
2022/08/17 01:02:45;;;;;;;10.20;9.20;;;;;;;;;;5065382;28;20193;-67
2022/08/17 01:05:19;;;;;;;10.40;9.10;;;;;;;;;;5047398;28;20194;-67
2022/08/17 01:07:53;;;;;;;9.60;8.80;;;;;;;;;;5045637;28;20232;-67
2022/08/17 01:10:30;;;;;;;10.70;9.37;;;;;;;;;;5048265;28;20578;-66
2022/08/17 01:13:22;;;;;;;9.20;8.43;;;;;;;;;;5054421;28;20187;-67
2022/08/17 01:15:54;;;;;;;9.13;8.37;;;;;;;;;;5047091;28;20220;-67
2022/08/17 01:18:26;;;;;;;9.03;8.23;;;;;;;;;;5072300;28;20195;-67
2022/08/17 01:20:59;;;;;;;9.03;8.20;;;;;;;;;;5070151;28;20181;-67
2022/08/17 01:23:30;;;;;;;9.17;8.47;;;;;;;;;;5040129;28;20221;-66
2022/08/17 01:26:04;;;;;;;11.53;9.40;;;;;;;;;;5062726;28;20197;-67
2022/08/17 01:28:39;;;;;;;10.00;9.07;;;;;;;;;;5049058;28;20686;-67
2022/08/17 01:31:26;;;;;;;10.43;9.53;;;;;;;;;;5063326;28;20197;-67
2022/08/17 01:33:58;;;;;;;9.93;9.03;;;;;;;;;;5060091;28;20198;-67
2022/08/17 01:36:29;;;;;;;9.87;9.03;;;;;;;;;;5047674;28;20197;-67
2022/08/17 01:39:02;;;;;;;10.10;9.17;;;;;;;;;;5047900;28;20202;-66
2022/08/17 01:41:33;;;;;;;10.43;9.43;;;;;;;;;;5065657;28;20201;-67
2022/08/17 01:44:03;;;;;;;9.93;9.03;;;;;;;;;;5056603;28;20706;-67
2022/08/17 01:46:34;;;;;;;11.13;10.03;;;;;;;;;;5060317;28;20658;-67
2022/08/17 01:49:11;;;;;;;10.57;9.57;;;;;;;;;;5051611;28;20216;-67
2022/08/17 01:51:42;;;;;;;10.33;9.33;;;;;;;;;;5046396;28;20185;-67
2022/08/17 01:54:17;;;;;;;9.63;8.93;;;;;;;;;;5062267;28;20201;-66
2022/08/17 01:56:50;;;;;;;10.90;9.80;;;;;;;;;;5042084;28;20920;-67
2022/08/17 01:59:20;;;;;;;11.23;10.23;;;;;;;;;;5060931;28;20209;-67
2022/08/17 02:01:51;;;;;;;10.53;9.53;;;;;;;;;;5050683;28;20300;-67
2022/08/17 02:04:24;;;;;;;11.43;10.33;;;;;;;;;;5065640;28;20186;-66
2022/08/17 02:06:54;;;;;;;10.33;9.43;;;;;;;;;;5049589;28;20193;-67
2022/08/17 02:09:24;;;;;;;10.50;9.50;;;;;;;;;;5067107;28;20280;-66
2022/08/17 02:11:59;;;;;;;10.53;9.63;;;;;;;;;;5038236;28;20267;-66
2022/08/17 02:14:55;;;;;;;10.70;9.80;;;;;;;;;;5053847;28;20205;-67
2022/08/17 02:17:22;;;;;;;11.30;10.30;;;;;;;;;;5044157;28;20194;-67
2022/08/17 02:19:54;;;;;;;10.60;9.67;;;;;;;;;;5057303;28;20211;-67
2022/08/17 02:22:24;;;;;;;11.07;10.17;;;;;;;;;;5062424;28;20221;-67
2022/08/17 02:25:04;;;;;;;10.20;9.40;;;;;;;;;;5048968;28;20213;-67
2022/08/17 02:27:39;;;;;;;10.40;9.60;;;;;;;;;;5048069;28;20213;-67
2022/08/17 02:30:09;;;;;;;10.97;9.93;;;;;;;;;;5044466;28;20243;-67
2022/08/17 02:33:02;;;;;;;10.00;9.17;;;;;;;;;;5028773;28;20197;-66
2022/08/17 02:35:31;;;;;;;12.27;9.87;;;;;;;;;;5061447;28;20572;-67
2022/08/17 02:38:12;;;;;;;11.23;10.23;;;;;;;;;;5063844;28;20268;-67
2022/08/17 02:40:45;;;;;;;12.40;10.30;;;;;;;;;;5062576;28;20208;-67
2022/08/17 02:43:13;;;;;;;10.50;9.50;;;;;;;;;;5060636;28;20209;-67
2022/08/17 02:45:42;;;;;;;11.53;10.53;;;;;;;;;;5062903;28;20205;-67
2022/08/17 02:48:10;;;;;;;10.87;9.87;;;;;;;;;;5048455;28;20217;-67
2022/08/17 02:51:01;;;;;;;10.83;9.83;;;;;;;;;;5058153;28;20198;-67
2022/08/17 02:53:32;;;;;;;10.73;9.80;;;;;;;;;;5067869;28;20193;-67
2022/08/17 02:56:02;;;;;;;11.03;9.70;;;;;;;;;;5053778;28;20227;-68
2022/08/17 02:58:32;;;;;;;11.23;10.30;;;;;;;;;;5053890;28;20205;-67
2022/08/17 03:01:09;;;;;;;10.67;9.77;;;;;;;;;;5068600;28;20269;-65
2022/08/17 03:03:40;;;;;;;10.97;10.03;;;;;;;;;;5046489;28;20526;-67
2022/08/17 03:06:09;;;;;;;9.80;9.00;;;;;;;;;;5063397;28;20194;-67
2022/08/17 03:08:39;;;;;;;10.33;9.43;;;;;;;;;;5064334;28;20225;-68
2022/08/17 03:11:09;;;;;;;11.13;10.10;;;;;;;;;;5058945;28;20278;-67
2022/08/17 03:13:38;;;;;;;10.97;9.90;;;;;;;;;;5064532;28;20245;-67
2022/08/17 03:16:07;;;;;;;10.73;9.83;;;;;;;;;;5070624;28;20197;-67
2022/08/17 03:18:38;;;;;;;10.80;9.77;;;;;;;;;;5068766;28;20284;-67
2022/08/17 03:21:08;;;;;;;10.03;9.13;;;;;;;;;;5062324;28;20226;-67
2022/08/17 03:23:40;;;;;;;10.43;9.63;;;;;;;;;;5065258;28;20219;-67
2022/08/17 03:26:11;;;;;;;10.27;9.47;;;;;;;;;;5066271;28;20205;-67
2022/08/17 03:28:43;;;;;;;10.07;9.07;;;;;;;;;;5067851;28;20228;-66
2022/08/17 03:31:13;;;;;;;10.40;9.50;;;;;;;;;;5067753;28;20649;-67
2022/08/17 03:33:44;;;;;;;10.17;9.37;;;;;;;;;;5064263;28;20482;-67
2022/08/17 03:36:16;;;;;;;10.20;9.27;;;;;;;;;;5068423;28;20237;-67
2022/08/17 03:38:48;;;;;;;9.70;8.63;;;;;;;;;;5072145;28;20185;-67
2022/08/17 03:41:20;;;;;;;10.60;9.60;;;;;;;;;;5061960;28;20679;-67
2022/08/17 03:43:52;;;;;;;10.60;9.70;;;;;;;;;;5042960;28;20202;-65
2022/08/17 03:57:39;;;;;;;10.47;9.47;;;;;;;;;;5060284;28;20240;-67
2022/08/17 04:00:10;;;;;;;9.97;9.17;;;;;;;;;;5051121;28;20336;-67
2022/08/17 04:02:49;;;;;;;10.17;9.20;;;;;;;;;;5063558;28;20205;-67
2022/08/17 04:05:20;;;;;;;10.17;9.30;;;;;;;;;;5065706;28;20186;-67
2022/08/17 04:07:50;;;;;;;10.17;9.33;;;;;;;;;;5040319;28;20191;-67
2022/08/17 04:10:22;;;;;;;10.77;9.67;;;;;;;;;;5045354;28;20212;-66
2022/08/17 04:12:57;;;;;;;9.73;8.93;;;;;;;;;;5064862;28;20191;-66
2022/08/17 04:15:29;;;;;;;10.77;9.87;;;;;;;;;;5061420;28;20201;-65
2022/08/17 04:17:57;;;;;;;9.97;9.10;;;;;;;;;;5034628;28;20237;-65
2022/08/17 04:20:50;;;;;;;12.20;9.37;;;;;;;;;;5066235;28;20197;-66
2022/08/17 04:23:27;;;;;;;11.00;9.77;;;;;;;;;;5033930;28;20205;-67
2022/08/17 04:26:00;;;;;;;10.87;9.83;;;;;;;;;;5067560;28;20333;-65
2022/08/17 04:28:33;;;;;;;10.20;9.40;;;;;;;;;;5062729;28;20691;-67
2022/08/17 04:31:03;;;;;;;9.73;8.93;;;;;;;;;;5065669;28;20780;-62
2022/08/17 04:33:36;;;;;;;10.70;9.60;;;;;;;;;;5045297;28;20205;-65
2022/08/17 04:36:14;;;;;;;12.37;9.97;;;;;;;;;;5064050;28;20209;-65
2022/08/17 04:38:44;;;;;;;10.10;9.20;;;;;;;;;;5052886;28;20706;-65
2022/08/17 04:44:11;;;;;;;11.17;9.63;;;;;;;;;;5065479;28;20229;-65
2022/08/17 04:47:06;;;;;;;10.87;9.77;;;;;;;;;;5058383;28;20602;-64
2022/08/17 04:49:39;;;;;;;9.50;8.63;;;;;;;;;;5058719;28;20232;-65
2022/08/17 04:52:15;;;;;;;10.63;9.53;;;;;;;;;;5055001;28;20191;-65
2022/08/17 04:55:04;;;;;;;10.20;9.30;;;;;;;;;;5058594;28;20237;-65
2022/08/17 04:57:36;;;;;;;11.00;9.20;;;;;;;;;;5050486;28;20292;-64
2022/08/17 05:00:13;;;;;;;10.67;9.47;;;;;;;;;;5054780;28;20221;-65
2022/08/17 05:02:46;;;;;;;10.30;9.30;;;;;;;;;;5036956;28;20199;-67
2022/08/17 05:05:28;;;;;;;10.80;9.80;;;;;;;;;;5063952;28;20185;-67
2022/08/17 05:08:04;;;;;;;10.90;9.80;;;;;;;;;;5051939;28;20687;-67
2022/08/17 05:10:37;;;;;;;9.77;8.80;;;;;;;;;;5064955;28;20260;-67
2022/08/17 05:13:14;;;;;;;10.33;9.53;;;;;;;;;;5058839;28;20674;-67
2022/08/17 05:15:43;;;;;;;10.47;9.40;;;;;;;;;;5060238;28;20265;-67
2022/08/17 05:18:16;;;;;;;10.07;9.27;;;;;;;;;;5079278;28;20508;-68
2022/08/17 05:20:45;;;;;;;14.90;9.63;;;;;;;;;;5066708;28;20206;-64
2022/08/17 05:23:18;;;;;;;10.40;9.40;;;;;;;;;;5049826;28;20670;-65
2022/08/17 05:25:50;;;;;;;10.07;9.07;;;;;;;;;;5044903;28;20201;-64
2022/08/17 05:28:28;;;;;;;9.63;8.73;;;;;;;;;;5061921;28;20658;-65
2022/08/17 05:30:59;;;;;;;12.67;9.33;;;;;;;;;;5050935;28;20191;-66
2022/08/17 05:33:32;;;;;;;9.73;8.87;;;;;;;;;;5052395;28;20256;-66
2022/08/17 05:36:04;;;;;;;9.97;9.07;;;;;;;;;;5040785;28;20219;-66
2022/08/17 05:38:33;;;;;;;9.77;8.97;;;;;;;;;;5053671;28;20189;-67
2022/08/17 05:41:04;;;;;;;10.57;9.67;;;;;;;;;;5042286;28;20213;-64
2022/08/17 05:43:36;;;;;;;11.13;10.03;;;;;;;;;;5046313;28;20253;-64
2022/08/17 05:46:26;;;;;;;10.10;9.23;;;;;;;;;;5066506;28;20201;-66
2022/08/17 05:48:58;;;;;;;10.33;9.43;;;;;;;;;;5058004;28;20222;-66
2022/08/17 05:51:27;;;;;;;11.27;10.17;;;;;;;;;;5051997;28;20629;-67
2022/08/17 05:54:32;;;;;;;10.87;9.97;;;;;;;;;;5055843;28;20772;-67
2022/08/17 05:57:21;;;;;;;10.63;9.83;;;;;;;;;;5056534;28;20623;-66
2022/08/17 06:00:13;;;;;;;11.43;10.47;;;;;;;;;;5060150;28;20201;-67
2022/08/17 06:03:10;;;;;;;11.40;10.50;;;;;;;;;;5056831;28;20277;-64
2022/08/17 06:06:14;;;;;;;11.80;10.70;;;;;;;;;;5070042;28;20220;-66
2022/08/17 06:09:03;;;;;;;12.03;11.03;;;;;;;;;;5016800;28;20269;-66
2022/08/17 06:11:33;;;;;;;11.20;10.20;;;;;;;;;;5066364;28;20214;-64
2022/08/17 06:14:26;;;;;;;11.43;10.47;;;;;;;;;;5057201;28;20216;-64
2022/08/17 06:16:57;;;;;;;11.87;10.87;;;;;;;;;;5068102;28;20190;-66
2022/08/17 06:19:40;;;;;;;11.50;10.20;;;;;;;;;;5068838;28;20209;-66
2022/08/17 06:22:19;;;;;;;13.27;10.73;;;;;;;;;;5053678;28;20198;-64
2022/08/17 06:24:55;;;;;;;11.90;11.00;;;;;;;;;;5066092;28;20232;-64
2022/08/17 06:27:32;;;;;;;12.27;11.23;;;;;;;;;;5066783;28;20203;-64
2022/08/17 06:30:08;;;;;;;12.50;11.50;;;;;;;;;;5065140;28;20210;-64
2022/08/17 06:32:50;;;;;;;12.70;11.60;;;;;;;;;;5064040;28;20190;-66
2022/08/17 06:35:58;;;;;;;13.37;12.13;;;;;;;;;;5052404;28;20219;-67
2022/08/17 06:39:03;;;;;;;13.83;12.20;;;;;;;;;;5061238;28;20216;-67
2022/08/17 06:41:44;;;;;;;13.40;12.30;;;;;;;;;;5072010;28;20270;-67
2022/08/17 06:44:40;;;;;;;14.13;12.67;;;;;;;;;;5061515;28;20190;-67
2022/08/17 06:47:30;;;;;;;14.00;12.80;;;;;;;;;;5061888;28;20524;-64
2022/08/17 06:50:20;;;;;;;14.23;13.03;;;;;;;;;;5058204;28;20232;-64
2022/08/17 06:52:57;;;;;;;14.37;12.87;;;;;;;;;;5060286;28;20264;-64
2022/08/17 06:55:32;;;;;;;14.40;13.10;;;;;;;;;;5067059;28;20287;-65
2022/08/17 06:58:08;;;;;;;14.10;12.90;;;;;;;;;;5060835;28;20626;-64
2022/08/17 07:00:46;;;;;;;14.53;13.10;;;;;;;;;;5048531;28;20202;-64
2022/08/17 07:03:29;;;;;;;14.07;12.67;;;;;;;;;;5039725;28;20484;-64
2022/08/17 07:06:05;;;;;;;16.17;13.90;;;;;;;;;;5063544;28;20275;-64
2022/08/17 07:09:13;;;;;;;13.33;12.13;;;;;;;;;;5055096;28;20309;-64
2022/08/17 07:11:42;;;;;;;16.07;12.70;;;;;;;;;;5041572;28;20197;-66
2022/08/17 07:14:28;;;;;;;15.87;14.33;;;;;;;;;;5054901;28;20226;-66
2022/08/17 07:17:01;;;;;;;17.43;15.80;;;;;;;;;;5064979;28;20225;-65
2022/08/17 07:19:32;;;;;;;18.90;17.47;;;;;;;;;;5050645;28;20736;-65
2022/08/17 07:22:09;;;;;;;20.77;18.80;;;;;;;;;;5047975;28;20221;-66
2022/08/17 07:24:59;;;;;;;21.43;19.27;;;;;;;;;;5064792;28;20215;-66
2022/08/17 07:27:30;;;;;;;21.63;19.37;;;;;;;;;;5069365;28;20200;-66
2022/08/17 07:30:06;;;;;;;22.77;20.17;;;;;;;;;;5066242;28;20222;-66
2022/08/17 07:32:37;;;;;;;22.50;20.40;;;;;;;;;;5068632;28;20619;-65
2022/08/17 07:35:14;;;;;;;23.30;21.30;;;;;;;;;;5065825;28;20200;-65
2022/08/17 07:37:55;;;;;;;22.17;19.97;;;;;;;;;;5058952;28;20214;-65
2022/08/17 07:40:29;;;;;;;21.47;19.37;;;;;;;;;;5066239;28;20288;-66
2022/08/17 07:43:16;;;;;;;21.17;19.27;;;;;;;;;;5049601;28;20704;-66
2022/08/17 07:48:55;;;;;;;23.83;21.20;;;;;;;;;;5062830;28;20691;-65
2022/08/17 07:51:30;;;;;;;23.77;21.53;;;;;;;;;;5046285;28;20265;-66
2022/08/17 07:54:24;;;;;;;24.33;21.93;;;;;;;;;;5060034;28;20210;-66
2022/08/17 07:56:55;;;;;;;23.47;21.50;;;;;;;;;;5031252;28;20589;-66
2022/08/17 07:59:36;;;;;;;24.00;21.47;;;;;;;;;;5047793;28;20205;-66
2022/08/17 08:02:28;;;;;;;23.23;21.13;;;;;;;;;;5063089;28;20588;-64
2022/08/17 08:05:04;;;;;;;24.20;21.90;;;;;;;;;;5047639;28;20703;-65
2022/08/17 08:08:00;;;;;;;23.60;21.50;;;;;;;;;;5046082;28;20670;-64
2022/08/17 08:10:41;;;;;;;23.70;21.50;;;;;;;;;;5041735;28;20206;-65
2022/08/17 08:13:21;;;;;;;24.10;22.00;;;;;;;;;;5052427;28;20202;-65
2022/08/17 08:15:54;;;;;;;61.87;35.23;;;;;;;;;;5043028;28;20272;-64
2022/08/17 08:18:34;;;;;;;64.40;36.50;;;;;;;;;;5043142;28;20197;-64
2022/08/17 08:21:35;;;;;;;43.80;27.20;;;;;;;;;;5042245;28;20651;-65
2022/08/17 08:24:18;;;;;;;31.93;25.73;;;;;;;;;;5038131;28;20218;-65
2022/08/17 08:27:01;;;;;;;30.80;23.50;;;;;;;;;;5043842;28;20253;-66
2022/08/17 08:29:39;;;;;;;29.23;23.37;;;;;;;;;;5019382;28;20219;-66
2022/08/17 08:32:36;;;;;;;26.57;22.57;;;;;;;;;;5042090;28;20686;-66
2022/08/17 08:35:10;;;;;;;27.27;22.00;;;;;;;;;;5031013;28;20657;-66
2022/08/17 08:37:55;;;;;;;23.37;20.50;;;;;;;;;;5044330;28;20222;-67
2022/08/17 08:40:41;;;;;;;22.47;20.10;;;;;;;;;;5048052;28;20216;-65
2022/08/17 08:43:48;;;;;;;24.13;20.43;;;;;;;;;;5042625;28;20199;-65
2022/08/17 08:46:39;;;;;;;24.63;22.07;;;;;;;;;;5043722;28;20209;-65
2022/08/17 08:49:25;;;;;;;26.13;22.13;;;;;;;;;;5014301;28;20691;-65
2022/08/17 08:52:40;;;;;;;23.13;20.83;;;;;;;;;;5045010;28;20278;-66
2022/08/17 08:55:15;;;;;;;23.30;21.17;;;;;;;;;;5042615;28;20256;-64
2022/08/17 08:57:55;;;;;;;23.97;21.67;;;;;;;;;;5037750;28;20190;-64
2022/08/17 09:00:33;;;;;;;21.67;19.83;;;;;;;;;;5036675;28;20208;-65
2022/08/17 09:03:25;;;;;;;21.90;20.00;;;;;;;;;;5044306;28;20190;-66
2022/08/17 09:06:48;;;;;;;21.10;19.10;;;;;;;;;;5053841;28;20690;-66
2022/08/17 09:09:18;;;;;;;20.40;18.60;;;;;;;;;;5045787;28;20214;-66
2022/08/17 09:11:52;;;;;;;22.13;20.10;;;;;;;;;;5021269;28;20202;-66
2022/08/17 09:14:50;;;;;;;23.50;21.33;;;;;;;;;;5030751;28;20199;-66
2022/08/17 09:17:22;;;;;;;21.63;19.53;;;;;;;;;;5028233;28;20198;-65
2022/08/17 09:20:04;;;;;;;22.23;20.10;;;;;;;;;;5050512;28;20191;-64
2022/08/17 09:22:41;;;;;;;22.83;20.70;;;;;;;;;;5051493;28;20198;-66
2022/08/17 09:25:10;;;;;;;20.30;18.40;;;;;;;;;;5018505;28;20244;-66
2022/08/17 09:27:57;;;;;;;20.17;18.27;;;;;;;;;;5040920;28;20240;-70
2022/08/17 09:30:46;;;;;;;21.30;19.30;;;;;;;;;;5022586;28;20221;-70
2022/08/17 09:33:21;;;;;;;23.60;21.43;;;;;;;;;;5030361;28;20515;-71
2022/08/17 09:36:03;;;;;;;22.27;20.23;;;;;;;;;;5039517;28;20190;-69
2022/08/17 09:38:51;;;;;;;21.40;19.30;;;;;;;;;;5038488;28;20687;-70
2022/08/17 09:41:32;;;;;;;20.67;18.87;;;;;;;;;;5046291;28;20202;-70
2022/08/17 09:44:05;;;;;;;18.90;17.30;;;;;;;;;;5026254;28;20197;-70
2022/08/17 09:47:05;;;;;;;19.93;18.23;;;;;;;;;;5031166;28;20198;-70
2022/08/17 09:49:46;;;;;;;19.97;18.20;;;;;;;;;;5034407;28;20718;-70
2022/08/17 09:52:27;;;;;;;19.43;17.60;;;;;;;;;;5047036;28;20191;-70
2022/08/17 09:55:02;;;;;;;19.17;17.47;;;;;;;;;;5031080;28;20195;-70
2022/08/17 09:57:58;;;;;;;19.43;17.73;;;;;;;;;;5063423;28;20194;-70
2022/08/17 10:00:34;;;;;;;18.73;17.13;;;;;;;;;;5056504;28;20211;-72
2022/08/17 10:03:21;;;;;;;19.17;17.47;;;;;;;;;;5047675;28;20212;-70
2022/08/17 10:06:00;;;;;;;19.30;17.20;;;;;;;;;;5053187;28;20278;-69
2022/08/17 10:08:36;;;;;;;22.27;18.03;;;;;;;;;;5058215;28;20706;-69
2022/08/17 10:11:17;;;;;;;20.47;18.40;;;;;;;;;;5060695;28;20222;-69
2022/08/17 10:14:10;;;;;;;19.97;18.17;;;;;;;;;;5062287;28;20706;-69
2022/08/17 10:17:11;;;;;;;21.10;18.83;;;;;;;;;;5067323;28;20193;-69
2022/08/17 10:19:51;;;;;;;19.70;17.83;;;;;;;;;;5041998;28;20186;-69
2022/08/17 10:28:25;;;;;;;19.33;17.43;;;;;;;;;;5063634;28;20198;-67
2022/08/17 10:31:01;;;;;;;18.77;17.07;;;;;;;;;;5066448;28;20228;-67
2022/08/17 10:34:03;;;;;;;19.33;17.60;;;;;;;;;;5062280;28;20186;-67
2022/08/17 10:36:38;;;;;;;19.33;17.53;;;;;;;;;;5055549;28;20213;-66
2022/08/17 10:39:30;;;;;;;19.73;17.70;;;;;;;;;;5064727;28;20189;-67
2022/08/17 10:42:00;;;;;;;18.97;17.13;;;;;;;;;;5059909;28;20603;-66
2022/08/17 10:44:33;;;;;;;20.20;18.20;;;;;;;;;;5046120;28;20190;-66
2022/08/17 10:47:09;;;;;;;20.90;18.90;;;;;;;;;;5057615;28;20220;-66
2022/08/17 10:49:56;;;;;;;19.60;17.90;;;;;;;;;;5047012;28;20794;-66
2022/08/17 10:52:30;;;;;;;19.47;17.77;;;;;;;;;;5059544;28;20243;-66
2022/08/17 10:55:16;;;;;;;19.97;18.07;;;;;;;;;;5059984;28;20256;-66
2022/08/17 10:57:48;;;;;;;18.43;16.73;;;;;;;;;;5045023;28;20198;-66
2022/08/17 11:00:53;;;;;;;19.53;17.53;;;;;;;;;;5061461;28;20198;-66
2022/08/17 11:03:26;;;;;;;17.97;16.47;;;;;;;;;;5033412;28;20229;-67
2022/08/17 11:06:03;;;;;;;18.67;16.93;;;;;;;;;;5059807;28;20205;-67
2022/08/17 11:08:49;;;;;;;18.47;16.80;;;;;;;;;;5056289;28;20197;-66
2022/08/17 11:11:25;;;;;;;18.60;16.93;;;;;;;;;;5058591;28;20218;-67
2022/08/17 11:14:16;;;;;;;18.00;16.20;;;;;;;;;;5047427;28;20234;-66
2022/08/17 11:17:11;;;;;;;17.77;16.17;;;;;;;;;;5061620;28;20271;-67
2022/08/17 11:19:58;;;;;;;17.30;15.73;;;;;;;;;;5055985;28;20835;-67
2022/08/17 11:22:42;;;;;;;16.60;15.20;;;;;;;;;;5059236;28;20213;-66
2022/08/17 11:25:14;;;;;;;17.70;16.00;;;;;;;;;;5055877;28;20267;-66
2022/08/17 11:27:53;;;;;;;17.80;16.10;;;;;;;;;;5059273;28;20204;-66
2022/08/17 11:30:43;;;;;;;16.83;15.27;;;;;;;;;;5048605;28;20221;-66
2022/08/17 11:33:33;;;;;;;17.37;15.73;;;;;;;;;;5066724;28;20194;-67
2022/08/17 11:36:23;;;;;;;17.03;15.63;;;;;;;;;;5054435;28;22194;-68
2022/08/17 11:38:56;;;;;;;17.07;15.47;;;;;;;;;;5062392;28;20239;-65
2022/08/17 11:41:56;;;;;;;17.70;16.10;;;;;;;;;;5062776;28;20217;-65
2022/08/17 11:44:36;;;;;;;17.73;16.30;;;;;;;;;;5014442;28;20214;-65
2022/08/17 11:53:44;;;;;;;17.87;16.23;;;;;;;;;;5057078;28;20198;-65
2022/08/17 11:56:32;;;;;;;18.77;17.00;;;;;;;;;;5068268;28;20236;-65
2022/08/17 11:59:24;;;;;;;18.43;16.50;;;;;;;;;;5048581;28;20220;-65
2022/08/17 12:02:00;;;;;;;19.40;17.07;;;;;;;;;;5057071;28;20209;-66
2022/08/17 12:04:35;;;;;;;18.20;16.60;;;;;;;;;;5060228;28;20220;-65
2022/08/17 12:07:21;;;;;;;18.70;17.10;;;;;;;;;;5029415;28;20264;-65
2022/08/17 12:10:02;;;;;;;19.43;17.57;;;;;;;;;;5046271;28;20214;-66
2022/08/17 12:12:34;;;;;;;18.03;16.43;;;;;;;;;;5063343;28;20251;-65
2022/08/17 12:15:07;;;;;;;18.50;16.97;;;;;;;;;;5066328;28;20201;-65
2022/08/17 12:17:45;;;;;;;19.97;18.23;;;;;;;;;;5043103;28;20614;-65
2022/08/17 12:20:20;;;;;;;18.97;17.27;;;;;;;;;;5064150;28;20556;-65
2022/08/17 12:23:12;;;;;;;18.87;17.27;;;;;;;;;;5059027;28;20537;-65
2022/08/17 12:25:58;;;;;;;19.40;17.70;;;;;;;;;;5051352;28;20201;-65
2022/08/17 12:28:29;;;;;;;19.00;17.20;;;;;;;;;;5068432;28;20524;-66
2022/08/17 12:31:03;;;;;;;18.73;17.03;;;;;;;;;;5048225;28;20226;-64
2022/08/17 12:33:37;;;;;;;18.97;17.13;;;;;;;;;;5039253;28;20251;-63
2022/08/17 12:36:14;;;;;;;18.77;16.77;;;;;;;;;;5041342;28;20649;-63
2022/08/17 12:38:58;;;;;;;21.63;19.73;;;;;;;;;;5031518;28;20207;-63
2022/08/17 12:42:00;;;;;;;22.10;20.20;;;;;;;;;;5059405;28;20194;-67
2022/08/17 12:44:43;;;;;;;20.23;18.53;;;;;;;;;;5071527;28;20252;-66
2022/08/17 12:47:23;;;;;;;18.37;16.93;;;;;;;;;;5039254;28;20194;-64
2022/08/17 12:50:12;;;;;;;21.33;19.53;;;;;;;;;;5053389;28;20267;-64
2022/08/17 12:52:59;;;;;;;18.33;16.73;;;;;;;;;;5064437;28;20198;-66
2022/08/17 12:55:37;;;;;;;18.17;16.57;;;;;;;;;;5065630;28;20226;-65
2022/08/17 12:58:23;;;;;;;18.47;16.70;;;;;;;;;;5046690;28;20205;-65
2022/08/17 13:01:16;;;;;;;19.27;17.47;;;;;;;;;;5059479;28;20229;-67
2022/08/17 13:03:53;;;;;;;19.47;17.87;;;;;;;;;;5060755;28;20193;-65
2022/08/17 13:06:32;;;;;;;20.77;17.53;;;;;;;;;;5063635;28;20196;-66
2022/08/17 13:09:31;;;;;;;19.87;17.97;;;;;;;;;;5043148;28;20192;-66
2022/08/17 13:12:07;;;;;;;19.60;18.00;;;;;;;;;;5075594;28;20230;-67
2022/08/17 13:14:44;;;;;;;19.90;18.20;;;;;;;;;;5061764;28;20651;-66
2022/08/17 13:17:26;;;;;;;20.37;18.27;;;;;;;;;;5056593;28;20211;-67
2022/08/17 13:19:58;;;;;;;19.13;17.43;;;;;;;;;;5046572;28;20243;-67
2022/08/17 13:22:31;;;;;;;18.63;16.93;;;;;;;;;;5052407;28;20775;-63
2022/08/17 13:25:07;;;;;;;18.60;17.10;;;;;;;;;;5047435;28;20210;-63
2022/08/17 13:27:42;;;;;;;18.87;17.07;;;;;;;;;;5060121;28;20220;-62
2022/08/17 13:30:12;;;;;;;19.43;17.63;;;;;;;;;;5062769;28;20190;-62
2022/08/17 13:32:46;;;;;;;18.10;16.63;;;;;;;;;;5065977;28;20190;-62
2022/08/17 13:35:29;;;;;;;18.73;17.23;;;;;;;;;;5046054;28;20194;-63
2022/08/17 13:38:17;;;;;;;19.73;18.13;;;;;;;;;;5060851;28;20206;-63
2022/08/17 13:40:51;;;;;;;19.23;17.43;;;;;;;;;;5064370;28;20206;-62
2022/08/17 13:43:39;;;;;;;19.73;18.10;;;;;;;;;;5058360;28;20225;-63
2022/08/17 13:46:17;;;;;;;18.30;16.80;;;;;;;;;;5055634;28;20257;-63
2022/08/17 13:49:10;;;;;;;19.67;17.93;;;;;;;;;;5058094;28;20262;-63
2022/08/17 13:51:42;;;;;;;20.53;18.73;;;;;;;;;;5067488;28;20717;-62
2022/08/17 13:54:31;;;;;;;18.93;17.30;;;;;;;;;;5037830;28;20382;-62
2022/08/17 13:57:11;;;;;;;18.80;17.10;;;;;;;;;;5048015;28;20228;-62
2022/08/17 13:59:44;;;;;;;20.77;19.03;;;;;;;;;;5060621;28;20630;-62
2022/08/17 14:02:23;;;;;;;20.33;18.63;;;;;;;;;;5066386;28;20201;-63
2022/08/17 14:04:55;;;;;;;20.27;18.60;;;;;;;;;;5037634;28;20635;-63
2022/08/17 14:07:41;;;;;;;20.07;18.47;;;;;;;;;;5058932;28;20189;-63
2022/08/17 14:10:19;;;;;;;19.23;17.63;;;;;;;;;;5063382;28;20201;-62
2022/08/17 14:12:51;;;;;;;21.43;19.73;;;;;;;;;;5061256;28;20241;-63
2022/08/17 14:15:22;;;;;;;22.03;20.13;;;;;;;;;;5067759;28;20208;-63
2022/08/17 14:18:16;;;;;;;21.50;19.70;;;;;;;;;;5060360;28;20277;-63
2022/08/17 14:21:07;;;;;;;21.43;19.57;;;;;;;;;;5062619;28;20209;-63
2022/08/17 14:23:39;;;;;;;21.50;19.50;;;;;;;;;;5057604;28;20210;-63
2022/08/17 14:26:18;;;;;;;21.03;19.33;;;;;;;;;;5059364;28;20196;-63
2022/08/17 14:28:52;;;;;;;21.07;19.37;;;;;;;;;;5066215;28;20201;-63
2022/08/17 14:31:26;;;;;;;21.23;19.33;;;;;;;;;;5061788;28;20857;-62
2022/08/17 14:34:09;;;;;;;21.63;19.77;;;;;;;;;;5059245;28;20259;-63
2022/08/17 14:36:40;;;;;;;20.33;18.63;;;;;;;;;;5054465;28;20213;-63
2022/08/17 14:39:16;;;;;;;20.90;19.20;;;;;;;;;;5059091;28;20181;-62
2022/08/17 14:41:44;;;;;;;21.77;19.87;;;;;;;;;;5049863;28;20225;-63
2022/08/17 14:44:15;;;;;;;21.23;19.53;;;;;;;;;;5061529;28;20361;-62
2022/08/17 14:46:47;;;;;;;21.20;19.40;;;;;;;;;;5060664;28;20272;-63
2022/08/17 14:49:19;;;;;;;20.33;18.63;;;;;;;;;;5052711;28;20224;-63
2022/08/17 14:51:55;;;;;;;20.80;19.10;;;;;;;;;;5040610;28;20214;-62
2022/08/17 14:54:24;;;;;;;22.33;20.40;;;;;;;;;;5061499;28;20182;-62
2022/08/17 14:57:07;;;;;;;21.50;19.67;;;;;;;;;;5060988;28;20245;-62
2022/08/17 14:59:58;;;;;;;21.77;19.87;;;;;;;;;;5054443;28;20663;-63
2022/08/17 15:02:28;;;;;;;21.60;19.90;;;;;;;;;;5062538;28;20212;-63
2022/08/17 15:05:00;;;;;;;21.83;19.93;;;;;;;;;;5038415;28;20554;-63
2022/08/17 15:07:36;;;;;;;21.53;19.73;;;;;;;;;;5052745;28;20216;-63
2022/08/17 15:10:07;;;;;;;21.63;19.93;;;;;;;;;;5059022;28;20194;-63
2022/08/17 15:12:41;;;;;;;20.30;18.70;;;;;;;;;;5063517;28;20240;-64
2022/08/17 15:15:12;;;;;;;22.00;20.20;;;;;;;;;;5084847;28;20527;-62
2022/08/17 15:17:44;;;;;;;20.83;19.03;;;;;;;;;;5032620;28;20201;-63
2022/08/17 15:20:26;;;;;;;21.57;19.87;;;;;;;;;;5067728;28;20200;-62
2022/08/17 15:22:57;;;;;;;19.90;18.27;;;;;;;;;;5066932;28;20190;-63
2022/08/17 15:25:27;;;;;;;21.23;19.37;;;;;;;;;;5044352;28;20222;-64
2022/08/17 15:28:02;;;;;;;19.03;17.53;;;;;;;;;;5057153;28;20608;-63
2022/08/17 15:30:32;;;;;;;19.70;18.20;;;;;;;;;;5055574;28;20213;-63
2022/08/17 15:33:06;;;;;;;21.37;19.50;;;;;;;;;;5051923;28;20202;-63
2022/08/17 15:35:36;;;;;;;21.07;19.37;;;;;;;;;;5063258;28;20202;-63
2022/08/17 15:38:07;;;;;;;20.63;18.93;;;;;;;;;;5053533;28;20224;-63
2022/08/17 15:40:42;;;;;;;20.83;19.13;;;;;;;;;;5044793;28;20190;-64
2022/08/17 15:43:19;;;;;;;20.03;18.43;;;;;;;;;;5043321;28;20190;-64
2022/08/17 15:46:05;;;;;;;19.10;17.50;;;;;;;;;;5047242;28;20201;-63
2022/08/17 15:48:43;;;;;;;18.77;17.27;;;;;;;;;;5059717;28;20204;-64
2022/08/17 15:51:18;;;;;;;17.23;15.83;;;;;;;;;;5045648;28;20296;-64
2022/08/17 15:53:51;;;;;;;17.63;16.20;;;;;;;;;;5048982;28;20201;-63
2022/08/17 15:56:25;;;;;;;17.07;15.60;;;;;;;;;;5055152;28;20228;-64
2022/08/17 15:59:00;;;;;;;16.67;15.27;;;;;;;;;;5067361;28;20705;-64